Saint Agatha, Maine
Current Conditions -  °F | °C
As of 4:53 PM on Monday 26 Jan 2015 (Local Time) from KFVE Reporting Station
Clear Clear  
Wind Chill: -24°   Ceiling: Unl
Heat Index: -17°   Visibility: 10mi
Dew Point: -24°   Wind: 6mph
Humidity: 55%   Direction: 340°NNW
Pressure: 30.16"   Gusts: NA
Location:  47.24°N, 68.31°W
Report Text: KFVE 262153Z AUTO 34005KT 10SM CLR M17/M24 A3016 RMK AO2 SLP241 T11721244
Loading
Personal Weather Stations






























Interactive Weather Map New forecast layout! Learn more

10-Day Weather Forecast

Advertisements
Track Severe Weather on mobile